createdAt,value
2023-03-14T00:01:12.928Z,100199.53
2023-03-14T00:03:40.623Z,100185.78
2023-03-14T00:06:08.789Z,100196.09
2023-03-14T00:08:36.881Z,100187.88
2023-03-14T00:11:09.065Z,100179.28
2023-03-14T00:13:37.290Z,100182.72
2023-03-14T00:16:09.562Z,100183.50
2023-03-14T00:18:37.293Z,100186.31
2023-03-14T00:21:06.183Z,100189.03
2023-03-14T00:23:34.726Z,100179.81
2023-03-14T00:26:03.803Z,100172.06
2023-03-14T00:28:31.383Z,100165.03
2023-03-14T00:30:59.376Z,100161.47
2023-03-14T00:33:27.061Z,100151.53
2023-03-14T00:35:55.861Z,100142.72
2023-03-14T00:38:23.815Z,100143.56
2023-03-14T00:40:52.814Z,100129.97
2023-03-14T00:43:24.284Z,100113.97
2023-03-14T00:45:52.511Z,100105.63
2023-03-14T00:48:20.822Z,100087.94
2023-03-14T00:50:48.510Z,100083.91
2023-03-14T00:53:17.191Z,100076.94
2023-03-14T00:55:46.383Z,100075.25
2023-03-14T00:58:15.135Z,100074.31
2023-03-14T01:00:43.230Z,100066.56
2023-03-14T01:03:11.352Z,100063.72
2023-03-14T01:05:39.307Z,100044.56
2023-03-14T01:08:08.097Z,100043.34
2023-03-14T01:10:38.976Z,100036.00
2023-03-14T01:13:06.897Z,100050.50
2023-03-14T01:15:35.330Z,100054.16
2023-03-14T01:18:03.787Z,100050.69
2023-03-14T01:20:31.499Z,100042.38
2023-03-14T01:22:59.186Z,100045.06
2023-03-14T01:25:27.445Z,100042.03
2023-03-14T01:27:55.588Z,100029.41
2023-03-14T01:30:23.509Z,100012.09
2023-03-14T01:32:51.294Z,100023.59
2023-03-14T01:35:19.029Z,100016.06
2023-03-14T01:37:46.821Z,100002.63
2023-03-14T01:40:19.480Z,99991.94
2023-03-14T01:42:47.862Z,99987.22
2023-03-14T01:45:34.391Z,99979.00
2023-03-14T01:48:02.212Z,99993.72
2023-03-14T01:50:30.370Z,99977.84
2023-03-14T01:52:58.591Z,99956.44
2023-03-14T01:55:26.655Z,99953.28
2023-03-14T01:57:58.503Z,99950.78
2023-03-14T02:00:26.353Z,99942.50
2023-03-14T02:03:00.041Z,99932.78
2023-03-14T02:05:29.791Z,99927.75
2023-03-14T02:08:05.341Z,99925.03
2023-03-14T02:10:39.936Z,99918.41
2023-03-14T02:13:08.336Z,99893.53
2023-03-14T02:15:54.546Z,99885.84
2023-03-14T02:18:41.732Z,99899.00
2023-03-14T02:21:30.715Z,99900.22
2023-03-14T02:24:16.014Z,99903.72
2023-03-14T02:27:08.032Z,99897.41
2023-03-14T02:29:41.238Z,99883.41
2023-03-14T02:32:09.356Z,99881.56
2023-03-14T02:34:37.512Z,99880.41
2023-03-14T02:37:06.693Z,99871.34
2023-03-14T02:39:43.023Z,99854.19
2023-03-14T02:42:12.420Z,99857.97
2023-03-14T02:45:01.192Z,99876.22
2023-03-14T02:47:31.543Z,99881.84
2023-03-14T02:50:05.717Z,99856.53
2023-03-14T02:52:33.177Z,99858.84
2023-03-14T02:55:01.381Z,99877.84
2023-03-14T02:57:29.219Z,99858.72
2023-03-14T03:00:01.348Z,99844.72
2023-03-14T03:02:33.679Z,99859.47
2023-03-14T03:05:01.402Z,99872.97
2023-03-14T03:07:29.203Z,99855.56
2023-03-14T03:09:58.629Z,99837.19
2023-03-14T03:12:26.678Z,99829.16
2023-03-14T03:14:54.329Z,99841.72
2023-03-14T03:17:22.027Z,99844.06
2023-03-14T03:19:49.689Z,99848.72
2023-03-14T03:22:18.554Z,99848.56
2023-03-14T03:24:46.202Z,99814.97
2023-03-14T03:27:13.884Z,99817.31
2023-03-14T03:29:41.638Z,99811.31
2023-03-14T03:32:09.415Z,99767.59
2023-03-14T03:34:37.181Z,99737.56
2023-03-14T03:37:04.940Z,99728.00
2023-03-14T03:39:37.011Z,99729.34
2023-03-14T03:42:04.788Z,99727.16
2023-03-14T03:44:32.428Z,99738.69
2023-03-14T03:47:00.352Z,99747.19
2023-03-14T03:49:32.118Z,99719.81
2023-03-14T03:52:01.552Z,99737.50
2023-03-14T03:54:30.141Z,99745.00
2023-03-14T03:56:57.798Z,99736.00
2023-03-14T03:59:25.558Z,99733.53
2023-03-14T04:01:53.247Z,99744.53
2023-03-14T04:04:21.051Z,99724.19
2023-03-14T04:06:48.992Z,99711.84
2023-03-14T04:09:16.842Z,99738.88
2023-03-14T04:11:47.776Z,99716.53
2023-03-14T04:14:32.928Z,99716.84
2023-03-14T04:17:11.665Z,99697.81
2023-03-14T04:19:39.601Z,99686.44
2023-03-14T04:22:07.690Z,99682.78
2023-03-14T04:24:43.099Z,99682.47
2023-03-14T04:27:10.849Z,99649.56
2023-03-14T04:29:38.758Z,99644.91
2023-03-14T04:32:06.593Z,99672.91
2023-03-14T04:34:34.518Z,99672.91
2023-03-14T04:37:02.265Z,99661.91
2023-03-14T04:39:36.128Z,99654.91
2023-03-14T04:42:10.881Z,99658.09
2023-03-14T04:44:39.626Z,99658.25
2023-03-14T04:47:07.976Z,99644.56
2023-03-14T04:49:36.305Z,99633.03
2023-03-14T04:52:04.583Z,99639.06
2023-03-14T04:54:34.656Z,99634.38
2023-03-14T04:57:02.521Z,99622.84
2023-03-14T04:59:33.186Z,99613.84
2023-03-14T05:02:11.573Z,99595.69
2023-03-14T05:04:58.934Z,99595.69
2023-03-14T05:07:42.903Z,99597.69
2023-03-14T05:10:55.702Z,99595.66
2023-03-14T05:13:43.735Z,99586.66
2023-03-14T05:16:43.354Z,99574.31
2023-03-14T05:19:31.381Z,99563.63
2023-03-14T05:22:12.254Z,99577.31
2023-03-14T05:24:48.950Z,99574.66
2023-03-14T05:27:37.098Z,99559.31
2023-03-14T05:30:29.629Z,99566.47
2023-03-14T05:33:20.420Z,99549.28
2023-03-14T05:36:11.512Z,99541.44
2023-03-14T05:39:08.408Z,99538.94
2023-03-14T05:42:05.064Z,99532.94
2023-03-14T05:44:56.256Z,99566.63
2023-03-14T05:47:42.816Z,99597.81
2023-03-14T05:50:29.018Z,99628.72
2023-03-14T05:53:32.184Z,99631.38
2023-03-14T05:56:32.431Z,99669.09
2023-03-14T05:59:10.265Z,99674.41
2023-03-14T06:02:00.225Z,99675.59
2023-03-14T06:04:31.082Z,99689.38
2023-03-14T06:07:01.172Z,99702.88
2023-03-14T06:09:29.179Z,99688.81
2023-03-14T06:12:00.570Z,99687.81
2023-03-14T06:14:32.230Z,99683.03
2023-03-14T06:17:02.771Z,99687.31
2023-03-14T06:19:36.187Z,99668.50
2023-03-14T06:22:03.837Z,99642.00
2023-03-14T06:24:34.145Z,99641.63
2023-03-14T06:27:03.845Z,99646.97
2023-03-14T06:29:32.012Z,99646.00
2023-03-14T06:31:59.915Z,99633.13
2023-03-14T06:34:28.061Z,99637.13
2023-03-14T06:36:55.834Z,99637.78
2023-03-14T06:39:23.578Z,99644.94
2023-03-14T06:42:00.695Z,99649.75
2023-03-14T06:44:28.470Z,99645.94
2023-03-14T06:46:56.311Z,99646.25
2023-03-14T06:49:24.099Z,99665.53
2023-03-14T06:51:55.193Z,99660.53
2023-03-14T06:54:23.012Z,99643.06
2023-03-14T06:56:50.748Z,99634.91
2023-03-14T06:59:18.499Z,99638.75
2023-03-14T07:01:49.660Z,99637.59
2023-03-14T07:04:17.514Z,99627.88
2023-03-14T07:06:48.900Z,99619.16
2023-03-14T07:09:18.484Z,99609.03
2023-03-14T07:11:54.560Z,99610.59
2023-03-14T07:14:24.145Z,99606.41
2023-03-14T07:16:51.970Z,99608.91
2023-03-14T07:19:19.706Z,99596.59
2023-03-14T07:21:47.438Z,99588.41
2023-03-14T07:24:17.459Z,99588.72
2023-03-14T07:26:45.110Z,99590.56
2023-03-14T07:29:12.803Z,99584.91
2023-03-14T07:31:42.146Z,99589.59
2023-03-14T07:34:09.923Z,99593.94
2023-03-14T07:36:41.276Z,99598.25
2023-03-14T07:39:08.943Z,99598.94
2023-03-14T07:41:53.312Z,99600.63
2023-03-14T07:44:40.979Z,99595.63
2023-03-14T07:47:08.713Z,99600.13
2023-03-14T07:49:36.488Z,99596.78
2023-03-14T07:52:04.156Z,99590.28
2023-03-14T07:54:31.837Z,99594.97
2023-03-14T07:57:02.646Z,99597.47
2023-03-14T07:59:30.375Z,99590.16
2023-03-14T08:01:58.039Z,99584.47
2023-03-14T08:04:25.683Z,99586.34
2023-03-14T08:06:55.772Z,99581.28
2023-03-14T08:09:23.524Z,99568.63
2023-03-14T08:11:51.184Z,99586.13
2023-03-14T08:14:18.960Z,99584.97
2023-03-14T08:16:46.645Z,99579.63
2023-03-14T08:19:14.374Z,99577.47
2023-03-14T08:21:42.076Z,99588.00
2023-03-14T08:24:09.806Z,99585.66
2023-03-14T08:26:37.495Z,99599.84
2023-03-14T08:29:05.794Z,99600.16
2023-03-14T08:31:33.631Z,99590.97
2023-03-14T08:34:01.414Z,99588.13
2023-03-14T08:36:29.240Z,99596.00
2023-03-14T08:38:58.050Z,99583.47
2023-03-14T08:41:25.762Z,99577.31
2023-03-14T08:43:53.698Z,99579.16
2023-03-14T08:46:21.525Z,99581.34
2023-03-14T08:48:49.243Z,99583.97
2023-03-14T08:51:17.042Z,99581.66
2023-03-14T08:53:44.833Z,99583.31
2023-03-14T08:56:12.580Z,99587.81
2023-03-14T08:58:40.488Z,99575.00
2023-03-14T09:01:09.933Z,99580.00
2023-03-14T09:03:38.255Z,99573.16
2023-03-14T09:06:06.724Z,99569.47
2023-03-14T09:08:35.940Z,99572.13
2023-03-14T09:11:07.762Z,99584.81
2023-03-14T09:13:36.825Z,99585.97
2023-03-14T09:16:04.842Z,99594.66
2023-03-14T09:18:32.587Z,99588.00
2023-03-14T09:21:02.436Z,99597.19
2023-03-14T09:23:30.224Z,99597.47
2023-03-14T09:26:00.860Z,99606.03
2023-03-14T09:28:28.952Z,99606.38
2023-03-14T09:30:56.834Z,99606.38
2023-03-14T09:33:24.893Z,99606.34
2023-03-14T09:35:52.700Z,99615.84
2023-03-14T09:38:22.274Z,99606.00
2023-03-14T09:40:50.253Z,99617.84
2023-03-14T09:43:18.356Z,99607.16
2023-03-14T09:45:47.614Z,99606.34
2023-03-14T09:48:22.985Z,99609.66
2023-03-14T09:50:53.620Z,99619.69
2023-03-14T09:53:40.711Z,99620.34
2023-03-14T09:56:13.396Z,99610.03
2023-03-14T09:58:42.636Z,99601.66
2023-03-14T10:01:12.749Z,99614.50
2023-03-14T10:03:41.873Z,99616.63
2023-03-14T10:06:15.232Z,99621.31
2023-03-14T10:08:43.553Z,99613.91
2023-03-14T10:11:18.622Z,99616.25
2023-03-14T10:13:49.564Z,99629.41
2023-03-14T10:16:17.363Z,99631.28
2023-03-14T10:18:48.215Z,99616.59
2023-03-14T10:21:22.840Z,99599.94
2023-03-14T10:23:50.504Z,99608.97
2023-03-14T10:26:34.434Z,99605.25
2023-03-14T10:29:11.783Z,99607.19
2023-03-14T10:31:48.049Z,99594.25
2023-03-14T10:34:24.226Z,99603.25
2023-03-14T10:36:55.586Z,99609.88
2023-03-14T10:39:25.966Z,99596.41
2023-03-14T10:41:55.244Z,99575.25
2023-03-14T10:44:24.485Z,99565.56
2023-03-14T10:47:00.990Z,99556.13
2023-03-14T10:49:30.620Z,99554.63
2023-03-14T10:52:02.440Z,99563.94
2023-03-14T10:54:32.859Z,99563.78
2023-03-14T10:57:01.798Z,99565.66
2023-03-14T10:59:35.561Z,99552.44
2023-03-14T11:02:13.798Z,99548.94
2023-03-14T11:04:51.775Z,99541.13
2023-03-14T11:07:25.625Z,99542.44
2023-03-14T11:10:12.293Z,99552.59
2023-03-14T11:13:03.511Z,99567.06
2023-03-14T11:15:41.345Z,99579.22
2023-03-14T11:18:09.110Z,99568.38
2023-03-14T11:20:39.812Z,99556.22
2023-03-14T11:23:22.773Z,99548.91
2023-03-14T11:25:50.948Z,99552.06
2023-03-14T11:28:24.930Z,99530.38
2023-03-14T11:30:52.780Z,99519.59
2023-03-14T11:33:33.284Z,99532.06
2023-03-14T11:36:04.054Z,99530.72
2023-03-14T11:38:36.662Z,99522.75
2023-03-14T11:41:05.805Z,99522.56
2023-03-14T11:43:41.413Z,99525.25
2023-03-14T11:46:12.159Z,99521.34
2023-03-14T11:48:43.066Z,99522.25
2023-03-14T11:51:16.092Z,99536.19
2023-03-14T11:53:49.705Z,99531.47
2023-03-14T11:56:29.661Z,99530.66
2023-03-14T11:58:59.950Z,99518.44
2023-03-14T12:01:36.248Z,99503.59
2023-03-14T12:04:11.147Z,99503.53
2023-03-14T12:06:52.363Z,99490.19
2023-03-14T12:09:21.350Z,99494.22
2023-03-14T12:11:53.906Z,99486.03
2023-03-14T12:14:26.331Z,99485.22
2023-03-14T12:16:58.289Z,99494.56
2023-03-14T12:19:28.950Z,99493.59
2023-03-14T12:22:14.589Z,99497.53
2023-03-14T12:24:48.556Z,99478.91
2023-03-14T12:27:36.218Z,99473.38
2023-03-14T12:30:16.898Z,99463.22
2023-03-14T12:33:04.545Z,99449.84
2023-03-14T12:35:40.216Z,99452.88
2023-03-14T12:38:11.507Z,99439.53
2023-03-14T12:40:41.888Z,99447.53
2023-03-14T12:43:29.609Z,99456.38
2023-03-14T12:46:16.812Z,99448.50
2023-03-14T12:48:48.887Z,99440.81
2023-03-14T12:51:21.267Z,99431.81
2023-03-14T12:54:01.448Z,99431.84
2023-03-14T12:56:48.000Z,99426.72
2023-03-14T12:59:33.848Z,99423.16
2023-03-14T13:02:16.152Z,99429.06
2023-03-14T13:04:43.966Z,99419.34
2023-03-14T13:07:30.795Z,99411.66
2023-03-14T13:13:03.608Z,99423.31
2023-03-14T13:15:33.702Z,99432.94
2023-03-14T13:18:10.377Z,99429.44
2023-03-14T13:20:40.200Z,99430.69
2023-03-14T13:23:20.271Z,99432.88
2023-03-14T13:25:49.154Z,99421.22
2023-03-14T13:28:17.222Z,99406.47
2023-03-14T13:30:46.572Z,99394.34
2023-03-14T13:33:19.509Z,99392.88
2023-03-14T13:35:48.748Z,99397.38
2023-03-14T13:38:21.404Z,99402.31
2023-03-14T13:40:50.073Z,99397.69
2023-03-14T13:43:22.760Z,99393.97
2023-03-14T13:45:52.427Z,99380.69
2023-03-14T13:48:20.551Z,99382.25
2023-03-14T13:50:53.225Z,99382.63
2023-03-14T13:53:21.615Z,99369.41
2023-03-14T13:55:50.615Z,99381.56
2023-03-14T13:58:26.603Z,99382.25
2023-03-14T14:01:05.384Z,99386.97
2023-03-14T14:03:35.709Z,99383.75
2023-03-14T14:06:03.376Z,99386.53
2023-03-14T14:08:31.374Z,99368.16
2023-03-14T14:11:01.608Z,99368.69
2023-03-14T14:13:31.078Z,99359.16
2023-03-14T14:16:00.239Z,99361.34
2023-03-14T14:18:28.877Z,99352.34
2023-03-14T14:20:57.275Z,99344.28
2023-03-14T14:23:27.996Z,99340.53
2023-03-14T14:25:58.700Z,99344.28
2023-03-14T14:28:31.094Z,99341.72
2023-03-14T14:31:04.070Z,99348.22
2023-03-14T14:33:39.517Z,99343.78
2023-03-14T14:36:14.034Z,99342.59
2023-03-14T14:38:41.959Z,99345.13
2023-03-14T14:41:12.717Z,99338.09
2023-03-14T14:43:41.538Z,99340.34
2023-03-14T14:46:09.906Z,99337.72
2023-03-14T14:48:38.837Z,99348.47
2023-03-14T14:51:07.656Z,99351.63
2023-03-14T14:53:39.967Z,99346.06
2023-03-14T14:56:09.598Z,99343.97
2023-03-14T14:58:41.003Z,99340.00
2023-03-14T15:01:13.226Z,99341.03
2023-03-14T15:03:43.422Z,99340.28
2023-03-14T15:06:15.133Z,99326.38
2023-03-14T15:08:44.840Z,99333.22
2023-03-14T15:11:17.728Z,99337.75
2023-03-14T15:13:45.630Z,99336.16
2023-03-14T15:16:14.089Z,99330.94
2023-03-14T15:18:41.961Z,99333.81
2023-03-14T15:21:11.019Z,99335.75
2023-03-14T15:23:38.921Z,99330.81
2023-03-14T15:26:12.776Z,99333.59
2023-03-14T15:28:40.671Z,99331.56
2023-03-14T15:31:12.796Z,99327.41
2023-03-14T15:33:41.105Z,99326.78
2023-03-14T15:36:18.343Z,99330.06
2023-03-14T15:38:45.986Z,99328.84
2023-03-14T15:41:13.790Z,99317.69
2023-03-14T15:43:41.400Z,99321.41
2023-03-14T15:46:12.858Z,99317.88
2023-03-14T15:48:40.687Z,99312.94
2023-03-14T15:51:08.501Z,99319.91
2023-03-14T15:53:38.323Z,99327.94
2023-03-14T15:56:07.300Z,99321.75
2023-03-14T15:58:35.309Z,99325.75
2023-03-14T16:01:03.731Z,99319.28
2023-03-14T16:03:31.570Z,99320.88
2023-03-14T16:05:59.332Z,99330.19
2023-03-14T16:08:27.668Z,99317.72
2023-03-14T16:10:55.959Z,99320.03
2023-03-14T16:13:23.867Z,99317.59
2023-03-14T16:15:58.466Z,99324.31
2023-03-14T16:18:28.308Z,99331.28
2023-03-14T16:20:57.753Z,99335.00
2023-03-14T16:23:26.185Z,99333.97
2023-03-14T16:25:54.376Z,99326.19
2023-03-14T16:28:22.284Z,99334.25
2023-03-14T16:30:50.269Z,99329.38
2023-03-14T16:33:18.541Z,99331.97
2023-03-14T16:36:12.637Z,99336.41
2023-03-14T16:38:41.503Z,99332.28
2023-03-14T16:41:13.946Z,99335.03
2023-03-14T16:43:42.038Z,99339.97
2023-03-14T16:46:12.823Z,99339.22
2023-03-14T16:48:40.936Z,99333.50
2023-03-14T16:51:09.851Z,99329.56
2023-03-14T16:53:37.882Z,99338.63
2023-03-14T16:56:05.826Z,99339.81
2023-03-14T16:58:33.732Z,99343.31
2023-03-14T17:01:10.662Z,99344.25
2023-03-14T17:03:43.581Z,99342.13
2023-03-14T17:06:12.867Z,99346.94
2023-03-14T17:08:40.747Z,99349.50
2023-03-14T17:11:08.832Z,99350.50
2023-03-14T17:13:36.890Z,99349.13
2023-03-14T17:16:04.842Z,99349.75
2023-03-14T17:18:32.581Z,99351.72
2023-03-14T17:21:00.476Z,99350.63
2023-03-14T17:23:29.354Z,99353.91
2023-03-14T17:25:57.431Z,99360.22
2023-03-14T17:28:25.984Z,99355.59
2023-03-14T17:31:07.368Z,99359.94
2023-03-14T17:33:35.594Z,99366.91
2023-03-14T17:36:03.509Z,99380.13
2023-03-14T17:38:32.180Z,99375.63
2023-03-14T17:40:59.883Z,99380.25
2023-03-14T17:43:27.571Z,99380.81
2023-03-14T17:46:02.762Z,99393.94
2023-03-14T17:48:30.411Z,99398.38
2023-03-14T17:51:01.975Z,99405.75
2023-03-14T17:53:30.653Z,99405.28
2023-03-14T17:55:58.324Z,99410.59
2023-03-14T17:58:27.423Z,99414.47
2023-03-14T18:00:56.525Z,99429.84
2023-03-14T18:03:24.157Z,99419.53
2023-03-14T18:05:52.106Z,99421.50
2023-03-14T18:08:19.737Z,99418.81
2023-03-14T18:10:47.521Z,99421.16
2023-03-14T18:13:15.207Z,99424.66
2023-03-14T18:15:42.885Z,99427.91
2023-03-14T18:18:10.693Z,99434.25
2023-03-14T18:20:38.287Z,99437.88
2023-03-14T18:23:07.568Z,99443.53
2023-03-14T18:25:35.202Z,99445.25
2023-03-14T18:28:02.886Z,99453.34
2023-03-14T18:30:30.709Z,99455.00
2023-03-14T18:32:58.431Z,99453.88
2023-03-14T18:35:26.318Z,99450.47
2023-03-14T18:37:53.958Z,99450.00
2023-03-14T18:40:21.571Z,99459.94
2023-03-14T18:42:49.310Z,99445.63
2023-03-14T18:45:17.408Z,99448.56
2023-03-14T18:47:45.065Z,99453.56
2023-03-14T18:50:13.077Z,99452.81
2023-03-14T18:52:40.777Z,99458.56
2023-03-14T18:55:08.690Z,99456.91
2023-03-14T18:57:36.320Z,99458.34
2023-03-14T19:00:05.548Z,99460.56
2023-03-14T19:02:33.337Z,99459.50
2023-03-14T19:05:01.064Z,99468.25
2023-03-14T19:07:29.108Z,99455.34
2023-03-14T19:09:56.827Z,99464.91
2023-03-14T19:12:24.476Z,99458.78
2023-03-14T19:14:53.134Z,99466.38
2023-03-14T19:17:20.955Z,99463.28
2023-03-14T19:19:48.809Z,99475.63
2023-03-14T19:22:16.504Z,99470.97
2023-03-14T19:24:44.229Z,99471.31
2023-03-14T19:27:11.898Z,99477.09
2023-03-14T19:29:42.491Z,99479.97
2023-03-14T19:32:10.799Z,99484.66
2023-03-14T19:34:38.514Z,99483.06
2023-03-14T19:37:06.342Z,99485.03
2023-03-14T19:39:34.015Z,99497.66
2023-03-14T19:42:01.682Z,99495.75
2023-03-14T19:44:29.413Z,99493.97
2023-03-14T19:46:57.207Z,99499.13
2023-03-14T19:49:24.965Z,99495.88
2023-03-14T19:51:53.055Z,99509.16
2023-03-14T19:54:22.812Z,99502.13
2023-03-14T19:56:51.570Z,99509.69
2023-03-14T19:59:19.297Z,99500.75
2023-03-14T20:01:49.021Z,99518.84
2023-03-14T20:04:16.784Z,99518.53
2023-03-14T20:06:44.478Z,99530.13
2023-03-14T20:09:12.455Z,99530.25
2023-03-14T20:11:41.026Z,99541.16
2023-03-14T20:14:09.436Z,99534.50
2023-03-14T20:16:39.684Z,99538.25
2023-03-14T20:19:08.980Z,99526.91
2023-03-14T20:21:36.981Z,99537.25
2023-03-14T20:24:05.605Z,99537.75
2023-03-14T20:26:35.298Z,99541.06
2023-03-14T20:29:04.288Z,99530.25
2023-03-14T20:31:37.622Z,99522.56
2023-03-14T20:34:05.522Z,99509.53
2023-03-14T20:36:34.951Z,99499.72
2023-03-14T20:39:04.079Z,99498.22
2023-03-14T20:41:33.415Z,99499.25
2023-03-14T20:44:02.498Z,99508.22
2023-03-14T20:46:31.530Z,99510.25
2023-03-14T20:49:02.652Z,99515.25
2023-03-14T20:51:32.814Z,99511.25
2023-03-14T20:54:00.936Z,99523.41
2023-03-14T20:56:29.144Z,99520.09
2023-03-14T20:58:58.007Z,99514.41
2023-03-14T21:04:11.981Z,99498.59
2023-03-14T21:06:40.947Z,99498.09
2023-03-14T21:09:10.240Z,99505.25
2023-03-14T21:11:38.796Z,99506.38
2023-03-14T21:14:06.502Z,99506.75
2023-03-14T21:16:35.402Z,99497.72
2023-03-14T21:19:04.228Z,99497.25
2023-03-14T21:21:32.339Z,99498.19
2023-03-14T21:24:01.659Z,99503.72
2023-03-14T21:26:29.552Z,99503.91
2023-03-14T21:28:57.377Z,99513.06
2023-03-14T21:31:26.846Z,99505.06
2023-03-14T21:33:55.836Z,99503.88
2023-03-14T21:36:23.835Z,99507.19
2023-03-14T21:38:51.505Z,99527.69
2023-03-14T21:41:19.543Z,99536.50
2023-03-14T21:43:47.215Z,99530.53
2023-03-14T21:46:14.926Z,99527.53
2023-03-14T21:48:44.218Z,99525.88
2023-03-14T21:51:11.874Z,99529.69
2023-03-14T21:53:39.633Z,99529.84
2023-03-14T21:56:07.391Z,99529.34
2023-03-14T21:58:35.832Z,99529.53
2023-03-14T22:01:06.687Z,99536.56
2023-03-14T22:03:34.701Z,99532.88
2023-03-14T22:06:02.570Z,99534.38
2023-03-14T22:08:30.260Z,99547.16
2023-03-14T22:10:57.910Z,99552.19
2023-03-14T22:13:26.030Z,99546.00
2023-03-14T22:15:53.621Z,99548.16
2023-03-14T22:18:21.292Z,99545.81
2023-03-14T22:20:48.878Z,99551.84
2023-03-14T22:23:16.924Z,99549.84
2023-03-14T22:25:46.962Z,99559.72
2023-03-14T22:28:14.647Z,99560.81
2023-03-14T22:30:46.071Z,99567.22
2023-03-14T22:33:14.226Z,99556.22
2023-03-14T22:35:42.009Z,99555.88
2023-03-14T22:38:09.631Z,99552.91
2023-03-14T22:40:38.249Z,99555.03
2023-03-14T22:43:05.996Z,99548.34
2023-03-14T22:45:33.688Z,99547.81
2023-03-14T22:48:01.315Z,99542.41
2023-03-14T22:50:28.975Z,99540.25
2023-03-14T22:52:59.307Z,99537.44
2023-03-14T22:55:27.093Z,99534.22
2023-03-14T22:57:55.332Z,99534.53
2023-03-14T23:00:23.024Z,99538.53
2023-03-14T23:02:50.790Z,99542.00
2023-03-14T23:05:18.603Z,99556.31
2023-03-14T23:07:46.254Z,99556.78
2023-03-14T23:10:13.912Z,99568.31
2023-03-14T23:12:41.531Z,99567.44
2023-03-14T23:15:09.388Z,99562.88
2023-03-14T23:17:37.597Z,99574.69
2023-03-14T23:20:06.766Z,99576.28
2023-03-14T23:22:34.528Z,99578.53
2023-03-14T23:25:04.125Z,99579.78
2023-03-14T23:27:31.996Z,99578.94
2023-03-14T23:29:59.621Z,99573.69
2023-03-14T23:32:27.421Z,99583.28
2023-03-14T23:34:55.210Z,99600.00
2023-03-14T23:37:23.554Z,99600.97
2023-03-14T23:39:51.270Z,99604.16
2023-03-14T23:42:19.011Z,99612.00
2023-03-14T23:44:46.711Z,99615.09
2023-03-14T23:47:14.359Z,99618.63
2023-03-14T23:49:42.115Z,99619.69
2023-03-14T23:52:09.780Z,99621.34
2023-03-14T23:54:37.449Z,99628.94
2023-03-14T23:57:05.692Z,99631.63
2023-03-14T23:59:33.722Z,99620.22
